createdAt,value
2018-02-23T00:01:09.160Z,55.33
2018-02-23T00:03:36.776Z,52.17
2018-02-23T00:06:05.108Z,55.53
2018-02-23T00:08:32.693Z,55.37
2018-02-23T00:11:00.223Z,49.17
2018-02-23T00:13:27.810Z,51.73
2018-02-23T00:15:55.357Z,50.10
2018-02-23T00:18:22.986Z,56.80
2018-02-23T00:20:50.558Z,55.37
2018-02-23T00:23:18.167Z,51.70
2018-02-23T00:25:45.712Z,54.83
2018-02-23T00:28:13.356Z,55.20
2018-02-23T00:30:41.123Z,53.43
2018-02-23T00:33:10.467Z,54.63
2018-02-23T00:35:38.163Z,56.50
2018-02-23T00:38:05.788Z,59.77
2018-02-23T00:40:33.390Z,55.80
2018-02-23T00:43:01.085Z,53.60
2018-02-23T00:45:28.653Z,52.13
2018-02-23T00:47:56.210Z,55.23
2018-02-23T00:50:23.802Z,57.37
2018-02-23T00:52:51.367Z,52.37
2018-02-23T00:55:20.203Z,58.73
2018-02-23T00:57:47.861Z,56.63
2018-02-23T01:00:15.440Z,60.63
2018-02-23T01:02:43.097Z,58.80
2018-02-23T01:05:10.672Z,60.93
2018-02-23T01:07:38.995Z,55.80
2018-02-23T01:10:06.575Z,58.20
2018-02-23T01:12:34.111Z,62.17
2018-02-23T01:15:01.705Z,64.63
2018-02-23T01:17:29.255Z,58.10
2018-02-23T01:19:56.819Z,61.53
2018-02-23T01:22:24.361Z,57.47
2018-02-23T01:24:52.018Z,66.67
2018-02-23T01:27:19.616Z,57.13
2018-02-23T01:29:47.245Z,67.80
2018-02-23T01:32:14.771Z,62.43
2018-02-23T01:34:42.377Z,64.60
2018-02-23T01:37:09.945Z,60.20
2018-02-23T01:39:37.545Z,58.23
2018-02-23T01:42:05.132Z,62.03
2018-02-23T01:44:32.705Z,62.70
2018-02-23T01:47:00.276Z,65.37
2018-02-23T01:49:27.921Z,64.07
2018-02-23T01:51:55.444Z,63.07
2018-02-23T01:54:23.050Z,67.00
2018-02-23T01:56:50.650Z,67.20
2018-02-23T01:59:19.056Z,66.13
2018-02-23T02:01:46.614Z,70.40
2018-02-23T02:04:14.217Z,67.80
2018-02-23T02:06:41.755Z,65.53
2018-02-23T02:09:09.381Z,69.33
2018-02-23T02:11:36.941Z,62.53
2018-02-23T02:14:04.513Z,67.28
2018-02-23T02:16:32.221Z,69.35
2018-02-23T02:18:59.815Z,68.33
2018-02-23T02:21:27.389Z,66.70
2018-02-23T02:23:55.011Z,71.12
2018-02-23T02:26:23.398Z,70.67
2018-02-23T02:28:50.959Z,72.50
2018-02-23T02:31:18.559Z,76.95
2018-02-23T02:33:46.124Z,73.28
2018-02-23T02:36:13.735Z,70.03
2018-02-23T02:38:41.379Z,71.62
2018-02-23T02:41:08.947Z,74.15
2018-02-23T02:43:36.528Z,73.03
2018-02-23T02:46:04.209Z,69.83
2018-02-23T02:48:31.813Z,68.50
2018-02-23T02:50:59.402Z,79.65
2018-02-23T02:53:26.990Z,73.77
2018-02-23T02:55:54.571Z,71.43
2018-02-23T02:58:22.145Z,69.20
2018-02-23T03:00:49.722Z,72.20
2018-02-23T03:03:17.285Z,78.28
2018-02-23T03:05:44.941Z,75.45
2018-02-23T03:08:12.498Z,77.57
2018-02-23T03:10:40.073Z,79.80
2018-02-23T03:13:07.618Z,78.33
2018-02-23T03:15:35.239Z,70.12
2018-02-23T03:18:02.820Z,73.62
2018-02-23T03:20:30.539Z,75.53
2018-02-23T03:22:58.082Z,74.63
2018-02-23T03:25:26.527Z,79.00
2018-02-23T03:27:54.069Z,73.87
2018-02-23T03:30:21.682Z,78.67
2018-02-23T03:32:49.288Z,76.73
2018-02-23T03:35:16.864Z,78.90
2018-02-23T03:37:44.499Z,83.13
2018-02-23T03:40:12.087Z,83.28
2018-02-23T03:42:39.643Z,74.32
2018-02-23T03:45:07.233Z,77.03
2018-02-23T03:47:34.800Z,79.30
2018-02-23T03:50:02.421Z,77.50
2018-02-23T03:52:29.960Z,69.75
2018-02-23T03:54:57.582Z,77.60
2018-02-23T03:57:25.147Z,66.97
2018-02-23T03:59:52.723Z,75.80
2018-02-23T04:02:21.075Z,72.28
2018-02-23T04:04:48.661Z,77.70
2018-02-23T04:07:16.993Z,76.85
2018-02-23T04:09:44.581Z,75.62
2018-02-23T04:12:12.170Z,73.70
2018-02-23T04:14:39.771Z,72.45
2018-02-23T04:17:07.315Z,76.10
2018-02-23T04:19:35.001Z,81.67
2018-02-23T04:22:02.589Z,78.47
2018-02-23T04:24:30.245Z,74.30
2018-02-23T04:26:57.888Z,75.93
2018-02-23T04:29:25.438Z,81.50
2018-02-23T04:31:53.099Z,72.57
2018-02-23T04:34:20.867Z,80.10
2018-02-23T04:36:48.405Z,83.93
2018-02-23T04:39:16.025Z,75.40
2018-02-23T04:41:43.621Z,71.85
2018-02-23T04:44:11.216Z,76.32
2018-02-23T04:46:38.796Z,67.23
2018-02-23T04:49:06.341Z,75.50
2018-02-23T04:51:33.940Z,79.30
2018-02-23T04:54:01.498Z,72.00
2018-02-23T04:56:29.081Z,68.12
2018-02-23T04:58:56.615Z,66.17
2018-02-23T05:01:24.978Z,64.78
2018-02-23T05:03:52.550Z,65.68
2018-02-23T05:06:20.891Z,61.13
2018-02-23T05:08:48.450Z,62.67
2018-02-23T05:11:16.017Z,65.68
2018-02-23T05:13:43.567Z,62.75
2018-02-23T05:16:11.165Z,58.53
2018-02-23T05:18:39.482Z,63.63
2018-02-23T05:21:07.914Z,57.17
2018-02-23T05:23:35.452Z,65.25
2018-02-23T05:26:03.035Z,63.35
2018-02-23T05:28:30.609Z,66.28
2018-02-23T05:30:58.941Z,62.97
2018-02-23T05:33:26.511Z,66.35
2018-02-23T05:35:54.193Z,66.75
2018-02-23T05:38:24.085Z,62.00
2018-02-23T05:40:51.791Z,60.30
2018-02-23T05:43:19.372Z,62.22
2018-02-23T05:45:47.037Z,68.20
2018-02-23T05:48:14.642Z,62.15
2018-02-23T05:50:42.353Z,57.85
2018-02-23T05:53:09.929Z,60.45
2018-02-23T05:55:37.601Z,63.17
2018-02-23T05:58:05.250Z,64.80
2018-02-23T06:00:32.937Z,59.57
2018-02-23T06:03:00.505Z,64.05
2018-02-23T06:05:29.597Z,66.60
2018-02-23T06:07:57.995Z,71.15
2018-02-23T06:10:25.582Z,72.78
2018-02-23T06:12:53.144Z,63.85
2018-02-23T06:15:20.851Z,69.07
2018-02-23T06:17:54.075Z,66.57
2018-02-23T06:20:28.000Z,69.80
2018-02-23T06:22:55.672Z,65.37
2018-02-23T06:25:23.311Z,66.87
2018-02-23T06:27:50.870Z,58.47
2018-02-23T06:30:19.218Z,61.17
2018-02-23T06:32:46.821Z,64.55
2018-02-23T06:35:15.040Z,65.35
2018-02-23T06:37:42.589Z,65.43
2018-02-23T06:40:10.261Z,71.30
2018-02-23T06:42:37.835Z,62.08
2018-02-23T06:45:05.702Z,72.37
2018-02-23T06:47:33.256Z,68.90
2018-02-23T06:50:00.859Z,59.15
2018-02-23T06:52:29.270Z,69.30
2018-02-23T06:54:56.915Z,68.78
2018-02-23T06:57:24.456Z,67.37
2018-02-23T06:59:52.056Z,67.03
2018-02-23T07:02:19.601Z,63.72
2018-02-23T07:04:47.208Z,70.43
2018-02-23T07:07:14.764Z,69.62
2018-02-23T07:09:43.590Z,66.55
2018-02-23T07:12:11.898Z,75.12
2018-02-23T07:14:39.467Z,68.68
2018-02-23T07:17:07.130Z,70.25
2018-02-23T07:19:34.842Z,79.37
2018-02-23T07:22:06.158Z,73.82
2018-02-23T07:24:33.732Z,74.57
2018-02-23T07:27:01.271Z,78.68
2018-02-23T07:29:28.874Z,71.20
2018-02-23T07:31:56.492Z,71.93
2018-02-23T07:34:24.894Z,69.63
2018-02-23T07:36:52.485Z,78.28
2018-02-23T07:39:20.080Z,72.65
2018-02-23T07:41:47.786Z,75.03
2018-02-23T07:44:15.496Z,72.40
2018-02-23T07:46:43.146Z,72.05
2018-02-23T07:49:10.863Z,71.57
2018-02-23T07:51:38.538Z,74.65
2018-02-23T07:54:06.846Z,75.65
2018-02-23T07:56:34.536Z,78.57
2018-02-23T07:59:02.089Z,77.28
2018-02-23T08:01:29.675Z,78.82
2018-02-23T08:03:57.284Z,74.32
2018-02-23T08:06:24.864Z,77.28
2018-02-23T08:08:52.454Z,71.12
2018-02-23T08:11:20.833Z,77.57
2018-02-23T08:13:48.406Z,74.53
2018-02-23T08:16:16.026Z,73.62
2018-02-23T08:18:43.644Z,77.78
2018-02-23T08:21:11.996Z,84.37
2018-02-23T08:23:39.564Z,76.53
2018-02-23T08:26:07.978Z,75.40
2018-02-23T08:28:35.532Z,79.37
2018-02-23T08:31:03.161Z,77.40
2018-02-23T08:33:30.734Z,76.67
2018-02-23T08:35:58.338Z,71.05
2018-02-23T08:38:25.874Z,78.75
2018-02-23T08:40:53.489Z,75.28
2018-02-23T08:43:21.054Z,73.60
2018-02-23T08:45:48.675Z,70.95
2018-02-23T08:48:17.069Z,70.20
2018-02-23T08:50:44.661Z,80.47
2018-02-23T08:53:12.222Z,81.07
2018-02-23T08:55:39.839Z,81.43
2018-02-23T08:58:07.424Z,70.87
2018-02-23T09:00:47.630Z,71.17
2018-02-23T09:03:17.811Z,67.37
2018-02-23T09:05:45.454Z,70.22
2018-02-23T09:08:13.061Z,71.80
2018-02-23T09:10:41.997Z,68.67
2018-02-23T09:13:09.798Z,71.37
2018-02-23T09:15:37.446Z,77.13
2018-02-23T09:18:05.022Z,74.00
2018-02-23T09:20:32.781Z,73.50
2018-02-23T09:23:00.404Z,73.67
2018-02-23T09:25:27.995Z,76.13
2018-02-23T09:27:56.186Z,72.67
2018-02-23T09:30:23.846Z,65.90
2018-02-23T09:32:57.228Z,76.07
2018-02-23T09:35:24.791Z,72.93
2018-02-23T09:37:52.356Z,72.72
2018-02-23T09:40:19.946Z,78.73
2018-02-23T09:42:47.470Z,74.10
2018-02-23T09:45:15.006Z,71.83
2018-02-23T09:47:42.642Z,73.87
2018-02-23T09:50:10.217Z,72.93
2018-02-23T09:52:37.795Z,72.20
2018-02-23T09:55:05.354Z,73.70
2018-02-23T09:57:32.943Z,68.37
2018-02-23T10:00:00.525Z,66.73
2018-02-23T10:02:28.881Z,72.57
2018-02-23T10:04:56.481Z,69.87
2018-02-23T10:07:24.035Z,70.30
2018-02-23T10:09:51.588Z,71.63
2018-02-23T10:12:19.159Z,74.33
2018-02-23T10:14:47.449Z,68.23
2018-02-23T10:17:15.028Z,70.97
2018-02-23T10:19:42.557Z,67.63
2018-02-23T10:22:10.152Z,75.47
2018-02-23T10:24:37.747Z,70.43
2018-02-23T10:27:05.322Z,77.47
2018-02-23T10:29:33.756Z,68.90
2018-02-23T10:32:01.364Z,67.63
2018-02-23T10:34:28.900Z,70.37
2018-02-23T10:36:56.481Z,67.40
2018-02-23T10:39:24.042Z,73.70
2018-02-23T10:41:52.402Z,70.37
2018-02-23T10:44:19.928Z,75.57
2018-02-23T10:46:47.516Z,75.65
2018-02-23T10:49:15.081Z,77.77
2018-02-23T10:51:42.657Z,74.00
2018-02-23T10:54:10.194Z,71.67
2018-02-23T10:56:37.812Z,75.23
2018-02-23T10:59:05.344Z,76.97
2018-02-23T11:01:32.933Z,73.40
2018-02-23T11:04:00.481Z,70.37
2018-02-23T11:06:28.066Z,71.23
2018-02-23T11:08:55.592Z,75.30
2018-02-23T11:11:23.169Z,77.83
2018-02-23T11:13:50.728Z,74.90
2018-02-23T11:16:18.308Z,72.07
2018-02-23T11:18:45.908Z,73.83
2018-02-23T11:21:14.244Z,78.93
2018-02-23T11:23:41.822Z,74.80
2018-02-23T11:26:09.378Z,73.50
2018-02-23T11:28:36.940Z,74.90
2018-02-23T11:31:04.512Z,69.47
2018-02-23T11:33:32.070Z,64.90
2018-02-23T11:35:59.654Z,73.50
2018-02-23T11:38:27.979Z,65.83
2018-02-23T11:40:55.548Z,70.47
2018-02-23T11:43:23.090Z,69.10
2018-02-23T11:45:50.671Z,68.07
2018-02-23T11:48:18.214Z,73.77
2018-02-23T11:50:45.765Z,74.57
2018-02-23T11:53:13.354Z,79.43
2018-02-23T11:55:40.989Z,64.50
2018-02-23T11:58:09.250Z,71.13
2018-02-23T12:00:36.845Z,72.10
2018-02-23T12:03:04.401Z,72.60
2018-02-23T12:05:31.978Z,71.77
2018-02-23T12:07:59.520Z,69.17
2018-02-23T12:10:27.081Z,67.80
2018-02-23T12:12:54.652Z,67.70
2018-02-23T12:15:22.241Z,66.10
2018-02-23T12:17:50.549Z,68.33
2018-02-23T12:20:18.144Z,72.63
2018-02-23T12:22:45.682Z,73.47
2018-02-23T12:25:13.277Z,70.67
2018-02-23T12:27:40.805Z,71.73
2018-02-23T12:30:08.702Z,71.30
2018-02-23T12:32:36.223Z,71.33
2018-02-23T12:35:03.802Z,68.73
2018-02-23T12:37:31.339Z,74.80
2018-02-23T12:39:58.918Z,62.60
2018-02-23T12:42:26.508Z,69.47
2018-02-23T12:44:54.058Z,71.10
2018-02-23T12:47:21.638Z,73.17
2018-02-23T12:49:49.947Z,70.20
2018-02-23T12:52:17.476Z,72.50
2018-02-23T12:54:45.048Z,72.57
2018-02-23T12:57:12.614Z,70.60
2018-02-23T12:59:40.181Z,70.13
2018-02-23T13:02:09.062Z,65.63
2018-02-23T13:04:36.650Z,65.90
2018-02-23T13:07:04.182Z,73.53
2018-02-23T13:09:31.754Z,66.17
2018-02-23T13:11:59.278Z,73.03
2018-02-23T13:14:32.572Z,67.87
2018-02-23T13:17:00.088Z,69.70
2018-02-23T13:19:27.652Z,70.43
2018-02-23T13:21:55.163Z,65.97
2018-02-23T13:24:22.701Z,72.53
2018-02-23T13:26:50.252Z,68.63
2018-02-23T13:29:17.772Z,68.43
2018-02-23T13:31:45.342Z,65.80
2018-02-23T13:34:12.864Z,66.10
2018-02-23T13:36:41.325Z,67.63
2018-02-23T13:39:12.580Z,71.97
2018-02-23T13:41:40.994Z,66.63
2018-02-23T13:44:08.511Z,70.60
2018-02-23T13:46:36.090Z,66.13
2018-02-23T13:49:03.595Z,69.63
2018-02-23T13:51:31.141Z,63.60
2018-02-23T13:54:04.375Z,71.10
2018-02-23T13:56:31.921Z,78.80
2018-02-23T13:58:59.445Z,68.73
2018-02-23T14:01:27.047Z,64.00
2018-02-23T14:03:55.368Z,72.50
2018-02-23T14:06:32.040Z,66.20
2018-02-23T14:08:59.584Z,70.27
2018-02-23T14:11:27.927Z,71.23
2018-02-23T14:13:55.440Z,67.83
2018-02-23T14:16:23.002Z,64.70
2018-02-23T14:18:50.561Z,69.13
2018-02-23T14:21:18.116Z,68.03
2018-02-23T14:23:45.646Z,70.87
2018-02-23T14:26:13.331Z,83.47
2018-02-23T14:28:40.856Z,86.57
2018-02-23T14:31:08.399Z,81.37
2018-02-23T14:33:35.914Z,81.33
2018-02-23T14:36:03.468Z,85.00
2018-02-23T14:38:30.972Z,79.37
2018-02-23T14:40:58.528Z,84.97
2018-02-23T14:43:26.093Z,90.83
2018-02-23T14:45:53.603Z,94.73
2018-02-23T14:48:32.836Z,92.00
2018-02-23T14:51:07.811Z,97.67
2018-02-23T14:53:35.335Z,83.37
2018-02-23T14:56:02.942Z,86.10
2018-02-23T14:58:30.580Z,84.80
2018-02-23T15:00:58.907Z,83.87
2018-02-23T15:03:26.420Z,94.43
2018-02-23T15:05:53.960Z,94.13
2018-02-23T15:08:21.492Z,85.00
2018-02-23T15:10:49.104Z,98.10
2018-02-23T15:13:16.636Z,92.30
2018-02-23T15:15:44.184Z,94.10
2018-02-23T15:18:11.714Z,87.67
2018-02-23T15:20:39.252Z,89.63
2018-02-23T15:23:06.842Z,87.10
2018-02-23T15:25:34.371Z,93.50
2018-02-23T15:28:02.799Z,88.57
2018-02-23T15:30:41.946Z,97.37
2018-02-23T15:33:09.600Z,88.27
2018-02-23T15:35:37.176Z,84.43
2018-02-23T15:38:04.728Z,82.70
2018-02-23T15:40:32.301Z,86.57
2018-02-23T15:42:59.832Z,89.07
2018-02-23T15:45:27.390Z,85.27
2018-02-23T15:48:00.515Z,91.70
2018-02-23T15:50:33.659Z,91.17
2018-02-23T15:53:01.196Z,84.97
2018-02-23T15:55:28.797Z,86.43
2018-02-23T15:58:00.271Z,90.33
2018-02-23T16:00:28.308Z,89.33
2018-02-23T16:02:55.870Z,91.87
2018-02-23T16:05:23.461Z,100.53
2018-02-23T16:07:50.980Z,87.23
2018-02-23T16:10:19.294Z,82.63
2018-02-23T16:12:46.880Z,90.13
2018-02-23T16:15:14.446Z,91.53
2018-02-23T16:17:41.993Z,98.90
2018-02-23T16:20:12.609Z,92.27
2018-02-23T16:22:40.141Z,92.00
2018-02-23T16:25:07.723Z,94.43
2018-02-23T16:27:35.236Z,90.10
2018-02-23T16:30:03.969Z,94.83
2018-02-23T16:32:31.496Z,89.43
2018-02-23T16:34:59.110Z,97.30
2018-02-23T16:37:26.630Z,94.60
2018-02-23T16:39:54.189Z,97.47
2018-02-23T16:42:21.806Z,87.90
2018-02-23T16:44:49.337Z,94.23
2018-02-23T16:47:16.876Z,88.33
2018-02-23T16:49:44.445Z,93.57
2018-02-23T16:52:11.979Z,97.70
2018-02-23T16:54:39.578Z,92.43
2018-02-23T16:57:07.070Z,91.50
2018-02-23T16:59:34.612Z,95.00
2018-02-23T17:02:02.144Z,89.37
2018-02-23T17:04:29.687Z,94.43
2018-02-23T17:06:57.234Z,88.43
2018-02-23T17:09:24.830Z,89.80
2018-02-23T17:11:52.415Z,98.50
2018-02-23T17:14:20.844Z,97.23
2018-02-23T17:16:48.455Z,100.90
2018-02-23T17:19:16.016Z,106.80
2018-02-23T17:21:43.650Z,97.77
2018-02-23T17:24:11.222Z,91.03
2018-02-23T17:26:38.800Z,99.37
2018-02-23T17:29:06.346Z,91.23
2018-02-23T17:31:33.920Z,95.07
2018-02-23T17:34:01.900Z,88.13
2018-02-23T17:36:30.640Z,96.17
2018-02-23T17:38:58.208Z,97.83
2018-02-23T17:41:25.785Z,100.80
2018-02-23T17:43:53.406Z,98.60
2018-02-23T17:46:21.028Z,99.50
2018-02-23T17:48:48.660Z,98.07
2018-02-23T17:51:16.242Z,97.50
2018-02-23T17:53:43.818Z,92.97
2018-02-23T17:56:12.169Z,95.83
2018-02-23T17:58:39.791Z,95.03
2018-02-23T18:01:08.983Z,93.07
2018-02-23T18:03:36.587Z,101.00
2018-02-23T18:06:04.174Z,97.03
2018-02-23T18:08:32.505Z,94.60
2018-02-23T18:11:00.113Z,102.23
2018-02-23T18:13:28.561Z,102.30
2018-02-23T18:15:56.220Z,111.17
2018-02-23T18:18:23.789Z,96.27
2018-02-23T18:20:51.398Z,103.13
2018-02-23T18:23:18.949Z,104.10
2018-02-23T18:25:46.558Z,102.23
2018-02-23T18:28:14.090Z,103.17
2018-02-23T18:30:41.673Z,98.93
2018-02-23T18:33:09.274Z,104.10
2018-02-23T18:35:38.483Z,106.17
2018-02-23T18:38:06.855Z,105.75
2018-02-23T18:40:35.285Z,102.03
2018-02-23T18:43:03.196Z,100.40
2018-02-23T18:45:30.768Z,102.33
2018-02-23T18:47:58.305Z,98.63
2018-02-23T18:50:25.870Z,97.67
2018-02-23T18:52:53.504Z,106.73
2018-02-23T18:55:21.087Z,101.00
2018-02-23T18:57:48.666Z,106.23
2018-02-23T19:00:16.285Z,102.33
2018-02-23T19:02:43.825Z,101.03
2018-02-23T19:05:11.407Z,105.07
2018-02-23T19:07:38.968Z,103.07
2018-02-23T19:10:06.553Z,98.37
2018-02-23T19:12:34.115Z,98.40
2018-02-23T19:15:02.511Z,98.33
2018-02-23T19:17:30.131Z,94.80
2018-02-23T19:19:57.730Z,101.25
2018-02-23T19:22:25.318Z,93.27
2018-02-23T19:24:52.911Z,99.47
2018-02-23T19:27:20.494Z,90.53
2018-02-23T19:29:48.101Z,100.43
2018-02-23T19:32:15.668Z,84.67
2018-02-23T19:34:43.254Z,97.40
2018-02-23T19:37:10.787Z,87.83
2018-02-23T19:39:38.426Z,91.85
2018-02-23T19:42:05.993Z,92.57
2018-02-23T19:44:33.574Z,90.47
2018-02-23T19:47:01.111Z,94.53
2018-02-23T19:49:28.719Z,99.00
2018-02-23T19:51:56.271Z,81.72
2018-02-23T19:54:23.841Z,90.80
2018-02-23T19:56:51.447Z,97.07
2018-02-23T19:59:19.048Z,90.70
2018-02-23T20:01:46.606Z,89.50
2018-02-23T20:04:14.149Z,92.75
2018-02-23T20:06:41.752Z,95.28
2018-02-23T20:09:10.102Z,86.97
2018-02-23T20:11:37.732Z,85.30
2018-02-23T20:14:05.291Z,85.43
2018-02-23T20:16:32.989Z,94.75
2018-02-23T20:19:00.606Z,96.90
2018-02-23T20:21:28.220Z,90.87
2018-02-23T20:23:56.601Z,92.80
2018-02-23T20:26:24.168Z,90.77
2018-02-23T20:28:51.759Z,92.12
2018-02-23T20:31:19.317Z,87.28
2018-02-23T20:33:47.102Z,87.47
2018-02-23T20:36:14.724Z,90.47
2018-02-23T20:38:42.320Z,92.60
2018-02-23T20:41:10.891Z,89.00
2018-02-23T20:43:38.560Z,87.22
2018-02-23T20:46:06.155Z,86.95
2018-02-23T20:48:33.735Z,85.35
2018-02-23T20:51:01.281Z,90.03
2018-02-23T20:53:28.857Z,87.12
2018-02-23T20:55:56.420Z,88.07
2018-02-23T20:58:24.065Z,98.65
2018-02-23T21:00:51.620Z,97.60
2018-02-23T21:03:19.207Z,79.85
2018-02-23T21:05:46.798Z,84.80
2018-02-23T21:08:14.396Z,83.90
2018-02-23T21:10:41.932Z,82.47
2018-02-23T21:13:09.532Z,86.80
2018-02-23T21:15:37.073Z,84.68
2018-02-23T21:18:04.673Z,85.00
2018-02-23T21:20:32.981Z,85.40
2018-02-23T21:23:00.567Z,83.55
2018-02-23T21:25:28.101Z,84.32
2018-02-23T21:27:55.698Z,80.30
2018-02-23T21:30:23.310Z,82.68
2018-02-23T21:32:50.895Z,88.40
2018-02-23T21:35:20.480Z,88.82
2018-02-23T21:37:48.019Z,82.18
2018-02-23T21:40:16.389Z,85.22
2018-02-23T21:42:45.519Z,86.50
2018-02-23T21:45:13.120Z,76.95
2018-02-23T21:47:40.681Z,83.35
2018-02-23T21:50:08.290Z,77.28
2018-02-23T21:52:36.944Z,76.10
2018-02-23T21:55:04.541Z,81.87
2018-02-23T21:57:32.107Z,77.95
2018-02-23T21:59:59.726Z,71.62
2018-02-23T22:02:27.260Z,77.12
2018-02-23T22:04:54.848Z,75.20
2018-02-23T22:07:22.440Z,72.10
2018-02-23T22:09:50.018Z,67.85
2018-02-23T22:12:17.633Z,77.45
2018-02-23T22:14:45.241Z,71.30
2018-02-23T22:17:12.773Z,77.15
2018-02-23T22:19:40.366Z,78.68
2018-02-23T22:22:07.964Z,67.65
2018-02-23T22:24:36.322Z,67.43
2018-02-23T22:27:03.861Z,65.97
2018-02-23T22:29:31.438Z,69.07
2018-02-23T22:31:59.003Z,67.82
2018-02-23T22:34:26.575Z,70.00
2018-02-23T22:36:54.099Z,64.10
2018-02-23T22:39:21.688Z,68.65
2018-02-23T22:41:49.233Z,66.32
2018-02-23T22:44:16.806Z,65.57
2018-02-23T22:46:44.365Z,67.57
2018-02-23T22:49:11.937Z,73.05
2018-02-23T22:51:39.496Z,64.07
2018-02-23T22:54:07.035Z,77.97
2018-02-23T22:56:34.635Z,63.60
2018-02-23T22:59:02.203Z,70.28
2018-02-23T23:01:29.791Z,68.15
2018-02-23T23:03:57.315Z,75.07
2018-02-23T23:06:25.683Z,68.62
2018-02-23T23:08:53.204Z,60.83
2018-02-23T23:11:22.000Z,65.95
2018-02-23T23:13:49.534Z,60.75
2018-02-23T23:16:17.115Z,62.78
2018-02-23T23:18:44.691Z,67.55
2018-02-23T23:21:12.253Z,67.30
2018-02-23T23:23:39.810Z,60.03
2018-02-23T23:26:07.379Z,65.00
2018-02-23T23:28:35.065Z,60.65
2018-02-23T23:31:02.831Z,64.30
2018-02-23T23:33:30.436Z,63.40
2018-02-23T23:35:57.996Z,60.38
2018-02-23T23:38:25.555Z,64.28
2018-02-23T23:40:53.121Z,63.60
2018-02-23T23:43:20.657Z,59.97
2018-02-23T23:45:48.233Z,60.47
2018-02-23T23:48:15.773Z,61.78
2018-02-23T23:50:43.404Z,62.45
2018-02-23T23:53:10.959Z,54.30
2018-02-23T23:55:38.546Z,60.72
2018-02-23T23:58:06.079Z,64.35
